Time;durP1;ratioP1;P1;durP2;ratioP2;P2;SDS_P1;SDS_P2;PMS_P1;PMS_P2;Temp;Humidity;BMP_temperature;BMP_pressure;BME280_temperature;BME280_humidity;BME280_pressure;Samples;Min_cycle;Max_cycle;Signal;HPM_P1;HPM_P2
2021/09/14 00:02:33;;;;;;;6.30;3.58;;;;;;;;;;5114570;28;20055;-62
2021/09/14 00:05:18;;;;;;;8.60;3.75;;;;;;;;;;5114142;28;20056;-62
2021/09/14 00:08:04;;;;;;;7.38;3.50;;;;;;;;;;5114146;28;20081;-62
2021/09/14 00:10:49;;;;;;;6.93;3.55;;;;;;;;;;5114055;28;20059;-62
2021/09/14 00:13:34;;;;;;;6.60;3.42;;;;;;;;;;5113831;28;20052;-62
2021/09/14 00:16:19;;;;;;;8.13;3.35;;;;;;;;;;5114007;28;20417;-62
2021/09/14 00:19:05;;;;;;;6.03;3.83;;;;;;;;;;5113940;28;20055;-63
2021/09/14 00:21:50;;;;;;;7.35;3.88;;;;;;;;;;5113896;28;20497;-62
2021/09/14 00:24:35;;;;;;;6.00;3.72;;;;;;;;;;5114118;28;20051;-62
2021/09/14 00:27:21;;;;;;;6.75;3.35;;;;;;;;;;5114001;28;20052;-62
2021/09/14 00:30:06;;;;;;;7.95;4.30;;;;;;;;;;5114367;28;20079;-62
2021/09/14 00:32:52;;;;;;;6.63;3.60;;;;;;;;;;5113763;28;20051;-62
2021/09/14 00:35:37;;;;;;;8.52;3.83;;;;;;;;;;5113291;28;20071;-62
2021/09/14 00:38:22;;;;;;;4.43;3.13;;;;;;;;;;5113100;28;20052;-63
2021/09/14 00:41:08;;;;;;;5.43;3.38;;;;;;;;;;5113576;28;20051;-62
2021/09/14 00:44:00;;;;;;;5.47;3.28;;;;;;;;;;5113738;28;20052;-63
2021/09/14 00:46:45;;;;;;;4.45;3.58;;;;;;;;;;5113428;28;20059;-63
2021/09/14 00:49:30;;;;;;;5.45;3.30;;;;;;;;;;5113510;28;20052;-62
2021/09/14 00:52:16;;;;;;;7.82;4.10;;;;;;;;;;5097847;28;20053;-62
2021/09/14 00:55:00;;;;;;;6.93;4.53;;;;;;;;;;5113214;28;20089;-63
2021/09/14 00:57:46;;;;;;;6.65;4.03;;;;;;;;;;5113249;28;20047;-62
2021/09/14 01:00:31;;;;;;;8.93;3.83;;;;;;;;;;5113048;28;20563;-62
2021/09/14 01:03:16;;;;;;;5.72;4.45;;;;;;;;;;5113307;28;20418;-62
2021/09/14 01:06:05;;;;;;;7.13;4.28;;;;;;;;;;5113269;28;20071;-62
2021/09/14 01:08:50;;;;;;;7.15;3.97;;;;;;;;;;5097603;28;20085;-62
2021/09/14 01:11:35;;;;;;;7.35;4.63;;;;;;;;;;5083621;28;20051;-62
2021/09/14 01:14:21;;;;;;;7.60;4.55;;;;;;;;;;5097475;28;20051;-62
2021/09/14 01:17:05;;;;;;;5.82;4.43;;;;;;;;;;5112846;28;20051;-63
2021/09/14 01:19:51;;;;;;;9.77;4.35;;;;;;;;;;5112948;28;20111;-63
2021/09/14 01:22:36;;;;;;;8.55;4.35;;;;;;;;;;5112915;28;20433;-63
2021/09/14 01:25:22;;;;;;;11.43;4.88;;;;;;;;;;5112609;28;20044;-63
2021/09/14 01:28:11;;;;;;;6.82;4.85;;;;;;;;;;5097417;28;20048;-62
2021/09/14 01:30:57;;;;;;;8.18;4.10;;;;;;;;;;5112868;28;20056;-62
2021/09/14 01:33:47;;;;;;;7.43;4.65;;;;;;;;;;5096999;28;20412;-63
2021/09/14 01:36:33;;;;;;;5.70;3.58;;;;;;;;;;5097321;28;20122;-62
2021/09/14 01:39:19;;;;;;;6.47;4.30;;;;;;;;;;5097411;28;20055;-63
2021/09/14 01:42:05;;;;;;;6.10;4.43;;;;;;;;;;5097166;28;20052;-62
2021/09/14 01:44:50;;;;;;;8.98;4.80;;;;;;;;;;5097062;28;20126;-62
2021/09/14 01:47:36;;;;;;;8.20;4.60;;;;;;;;;;5112718;28;20130;-62
2021/09/14 01:50:21;;;;;;;9.15;4.70;;;;;;;;;;5096878;28;20443;-62
2021/09/14 01:53:06;;;;;;;9.43;5.22;;;;;;;;;;5097214;28;20072;-62
2021/09/14 01:55:57;;;;;;;14.45;4.90;;;;;;;;;;5097116;28;20051;-62
2021/09/14 01:58:43;;;;;;;8.95;5.72;;;;;;;;;;5097014;28;20471;-62
2021/09/14 02:01:42;;;;;;;7.25;5.13;;;;;;;;;;5097035;28;20044;-62
2021/09/14 02:04:37;;;;;;;9.88;5.63;;;;;;;;;;5096662;28;20051;-62
2021/09/14 02:38:39;;;;;;;11.35;5.45;;;;;;;;;;5079591;28;20505;-62
2021/09/14 02:45:02;;;;;;;5.65;4.93;;;;;;;;;;5096265;28;20606;-62
2021/09/14 02:59:54;;;;;;;9.45;6.75;;;;;;;;;;5096497;28;20051;-62
2021/09/14 03:02:39;;;;;;;10.07;6.25;;;;;;;;;;5099424;28;20114;-63
2021/09/14 03:05:28;;;;;;;9.43;6.18;;;;;;;;;;5099695;28;20557;-62
2021/09/14 03:08:14;;;;;;;13.30;6.95;;;;;;;;;;5100029;28;20048;-62
2021/09/14 03:11:04;;;;;;;12.45;7.22;;;;;;;;;;5100003;28;20132;-62
2021/09/14 03:13:51;;;;;;;12.50;7.30;;;;;;;;;;5099540;28;20047;-62
2021/09/14 03:16:37;;;;;;;13.48;6.60;;;;;;;;;;5099836;28;20055;-63
2021/09/14 03:19:22;;;;;;;10.52;7.00;;;;;;;;;;5099748;28;20525;-63
2021/09/14 03:22:08;;;;;;;13.13;7.28;;;;;;;;;;5099567;28;20051;-62
2021/09/14 03:24:53;;;;;;;13.98;7.03;;;;;;;;;;5099611;28;20172;-62
2021/09/14 03:27:38;;;;;;;13.80;7.70;;;;;;;;;;5099666;28;20409;-62
2021/09/14 03:30:24;;;;;;;14.13;7.93;;;;;;;;;;5099492;28;20525;-62
2021/09/14 03:33:10;;;;;;;14.40;9.15;;;;;;;;;;5114843;28;20052;-62
2021/09/14 03:35:55;;;;;;;13.48;8.32;;;;;;;;;;5099401;28;20051;-62
2021/09/14 03:38:40;;;;;;;14.48;8.60;;;;;;;;;;5114869;28;20047;-62
2021/09/14 03:41:25;;;;;;;16.75;9.25;;;;;;;;;;5099485;28;20122;-62
2021/09/14 03:44:11;;;;;;;16.67;9.18;;;;;;;;;;5099236;28;20294;-62
2021/09/14 03:46:56;;;;;;;17.48;9.00;;;;;;;;;;5129532;22;20378;-60
2021/09/14 03:49:41;;;;;;;17.55;9.10;;;;;;;;;;5100259;28;20122;-61
2021/09/14 03:52:26;;;;;;;18.27;9.70;;;;;;;;;;5103593;28;20433;-62
2021/09/14 03:55:11;;;;;;;16.95;9.43;;;;;;;;;;5125040;28;20087;-60
2021/09/14 03:58:01;;;;;;;16.40;9.75;;;;;;;;;;5108726;28;20055;-61
2021/09/14 04:00:51;;;;;;;15.77;8.60;;;;;;;;;;5098916;28;20090;-60
2021/09/14 04:03:50;;;;;;;15.38;9.20;;;;;;;;;;5098616;28;20051;-60
2021/09/14 04:09:24;;;;;;;23.85;11.10;;;;;;;;;;5098873;28;20051;-61
2021/09/14 04:12:13;;;;;;;21.20;11.55;;;;;;;;;;5098628;28;20055;-61
2021/09/14 04:14:58;;;;;;;22.08;12.40;;;;;;;;;;5106148;28;20130;-60
2021/09/14 04:17:43;;;;;;;22.65;12.25;;;;;;;;;;5099372;28;20051;-60
2021/09/14 04:20:28;;;;;;;20.60;11.93;;;;;;;;;;5099024;28;20464;-60
2021/09/14 04:23:14;;;;;;;26.30;12.30;;;;;;;;;;5099436;28;20052;-60
2021/09/14 04:25:59;;;;;;;21.02;12.38;;;;;;;;;;5102964;28;20044;-61
2021/09/14 04:28:45;;;;;;;21.13;11.50;;;;;;;;;;5095424;28;20050;-61
2021/09/14 04:31:31;;;;;;;19.80;12.18;;;;;;;;;;5109033;28;20051;-62
2021/09/14 04:34:16;;;;;;;22.65;13.02;;;;;;;;;;5098962;28;20055;-60
2021/09/14 04:37:04;;;;;;;23.27;12.25;;;;;;;;;;5098210;28;20159;-61
2021/09/14 04:39:50;;;;;;;21.73;12.73;;;;;;;;;;5113940;28;20043;-60
2021/09/14 04:42:36;;;;;;;23.80;12.95;;;;;;;;;;5113661;28;20051;-60
2021/09/14 04:45:21;;;;;;;25.73;13.65;;;;;;;;;;5113242;28;20047;-60
2021/09/14 04:48:09;;;;;;;26.40;13.40;;;;;;;;;;5098967;28;20051;-60
2021/09/14 04:50:55;;;;;;;22.02;13.07;;;;;;;;;;5098799;28;20527;-60
2021/09/14 04:53:41;;;;;;;26.15;13.45;;;;;;;;;;5100015;28;20047;-60
2021/09/14 04:56:26;;;;;;;26.25;13.20;;;;;;;;;;5108903;28;20054;-62
2021/09/14 04:59:12;;;;;;;20.80;12.40;;;;;;;;;;5091735;28;20122;-60
2021/09/14 05:01:58;;;;;;;27.10;14.07;;;;;;;;;;5097704;28;20119;-60
2021/09/14 05:04:43;;;;;;;25.85;13.45;;;;;;;;;;5097734;28;20055;-61
2021/09/14 05:07:28;;;;;;;29.17;14.02;;;;;;;;;;5097828;28;20047;-61
2021/09/14 05:10:14;;;;;;;29.98;14.38;;;;;;;;;;5097656;28;20114;-61
2021/09/14 05:13:06;;;;;;;24.55;14.43;;;;;;;;;;5100152;28;20043;-61
2021/09/14 05:15:53;;;;;;;25.63;15.35;;;;;;;;;;5097649;28;20123;-61
2021/09/14 05:18:57;;;;;;;26.75;14.52;;;;;;;;;;5112774;28;20126;-61
2021/09/14 05:21:47;;;;;;;30.67;15.02;;;;;;;;;;5097557;28;20047;-61
2021/09/14 05:24:32;;;;;;;31.05;16.00;;;;;;;;;;5113006;28;20444;-61
2021/09/14 05:27:17;;;;;;;28.75;15.30;;;;;;;;;;5100335;28;20060;-61
2021/09/14 05:30:02;;;;;;;33.22;15.85;;;;;;;;;;5100256;28;20060;-60
2021/09/14 05:32:48;;;;;;;29.42;15.73;;;;;;;;;;5115569;28;20060;-61
2021/09/14 05:35:42;;;;;;;30.02;15.32;;;;;;;;;;5096904;28;20051;-61
2021/09/14 05:38:28;;;;;;;33.28;16.55;;;;;;;;;;5099648;28;20051;-60
2021/09/14 05:41:16;;;;;;;29.27;15.40;;;;;;;;;;5092357;28;20059;-60
2021/09/14 05:44:01;;;;;;;24.40;16.00;;;;;;;;;;5097680;28;20048;-60
2021/09/14 05:46:46;;;;;;;31.10;15.88;;;;;;;;;;5097637;28;20051;-60
2021/09/14 05:49:32;;;;;;;28.48;15.45;;;;;;;;;;5112394;28;20115;-60
2021/09/14 05:52:17;;;;;;;26.33;15.02;;;;;;;;;;5096975;28;20052;-61
2021/09/14 05:55:06;;;;;;;27.85;17.38;;;;;;;;;;5096721;28;20516;-60
2021/09/14 05:57:51;;;;;;;35.20;16.55;;;;;;;;;;5096928;28;20047;-61
2021/09/14 06:00:37;;;;;;;27.52;16.45;;;;;;;;;;5121064;28;20051;-61
2021/09/14 06:03:22;;;;;;;28.60;14.82;;;;;;;;;;5103097;28;20048;-60
2021/09/14 06:06:10;;;;;;;28.45;14.88;;;;;;;;;;5097905;28;20143;-60
2021/09/14 06:08:56;;;;;;;28.05;16.33;;;;;;;;;;5097500;28;20048;-60
2021/09/14 06:11:41;;;;;;;27.13;15.73;;;;;;;;;;5102532;28;20152;-61
2021/09/14 06:14:27;;;;;;;30.58;16.02;;;;;;;;;;5082913;28;20047;-61
2021/09/14 06:17:13;;;;;;;25.80;15.68;;;;;;;;;;5096731;28;20056;-61
2021/09/14 06:19:58;;;;;;;25.40;14.82;;;;;;;;;;5112342;28;20087;-59
2021/09/14 06:22:44;;;;;;;24.70;13.70;;;;;;;;;;5100833;28;20047;-61
2021/09/14 06:25:29;;;;;;;26.48;16.45;;;;;;;;;;5104302;28;20048;-62
2021/09/14 06:28:18;;;;;;;27.73;16.70;;;;;;;;;;5099094;28;20052;-61
2021/09/14 06:31:03;;;;;;;24.02;14.27;;;;;;;;;;5096911;28;20051;-61
2021/09/14 06:33:51;;;;;;;28.73;15.80;;;;;;;;;;5096384;28;20493;-61
2021/09/14 06:36:36;;;;;;;28.40;16.17;;;;;;;;;;5121019;28;20087;-62
2021/09/14 06:39:22;;;;;;;28.42;17.92;;;;;;;;;;5109019;28;20062;-61
2021/09/14 06:42:08;;;;;;;22.73;15.48;;;;;;;;;;5095213;28;20058;-62
2021/09/14 06:44:53;;;;;;;26.95;16.35;;;;;;;;;;5092253;28;20054;-61
2021/09/14 06:47:44;;;;;;;22.83;15.45;;;;;;;;;;5088826;28;20390;-60
2021/09/14 06:50:29;;;;;;;25.55;16.60;;;;;;;;;;5115933;28;20087;-61
2021/09/14 06:53:14;;;;;;;28.25;16.75;;;;;;;;;;5116155;28;20056;-61
2021/09/14 06:55:59;;;;;;;25.58;15.85;;;;;;;;;;5116367;28;20051;-60
2021/09/14 06:58:52;;;;;;;23.70;15.05;;;;;;;;;;5100747;28;20055;-60
2021/09/14 07:01:38;;;;;;;20.67;14.20;;;;;;;;;;5115960;28;20048;-61
2021/09/14 07:04:23;;;;;;;20.80;13.93;;;;;;;;;;5115309;28;20122;-61
2021/09/14 07:07:08;;;;;;;25.23;15.82;;;;;;;;;;5115559;28;20048;-61
2021/09/14 07:09:53;;;;;;;17.75;13.07;;;;;;;;;;5128883;28;20047;-60
2021/09/14 07:12:39;;;;;;;22.38;14.73;;;;;;;;;;5132338;28;20075;-61
2021/09/14 07:15:25;;;;;;;21.67;13.48;;;;;;;;;;5104672;28;20048;-61
2021/09/14 07:18:10;;;;;;;20.13;13.40;;;;;;;;;;5104307;28;20056;-62
2021/09/14 07:20:55;;;;;;;18.50;12.90;;;;;;;;;;5092323;28;20414;-60
2021/09/14 07:23:41;;;;;;;21.35;14.02;;;;;;;;;;5115588;28;20122;-61
2021/09/14 07:26:26;;;;;;;20.00;11.50;;;;;;;;;;5115936;28;20052;-61
2021/09/14 07:29:11;;;;;;;17.38;12.90;;;;;;;;;;5124803;28;20095;-63
2021/09/14 07:31:56;;;;;;;16.83;12.27;;;;;;;;;;5103287;28;20134;-61
2021/09/14 07:34:42;;;;;;;19.05;11.90;;;;;;;;;;5114652;28;20500;-61
2021/09/14 07:37:27;;;;;;;16.45;11.85;;;;;;;;;;5114924;28;20055;-62
2021/09/14 07:40:12;;;;;;;18.45;10.90;;;;;;;;;;5129964;28;20051;-62
2021/09/14 07:42:58;;;;;;;16.10;10.60;;;;;;;;;;5130584;28;20052;-62
2021/09/14 07:45:44;;;;;;;14.60;11.10;;;;;;;;;;5100346;28;20056;-62
2021/09/14 07:48:29;;;;;;;15.77;10.98;;;;;;;;;;5114490;28;20107;-61
2021/09/14 07:51:15;;;;;;;14.68;10.35;;;;;;;;;;5115600;28;20060;-62
2021/09/14 07:54:00;;;;;;;14.30;9.82;;;;;;;;;;5113722;28;20059;-61
2021/09/14 07:56:46;;;;;;;12.20;9.25;;;;;;;;;;5131930;28;20103;-61
2021/09/14 07:59:32;;;;;;;14.25;9.13;;;;;;;;;;5126251;28;20119;-60
2021/09/14 08:02:17;;;;;;;13.10;9.10;;;;;;;;;;5124323;28;20048;-61
2021/09/14 08:05:02;;;;;;;10.50;8.60;;;;;;;;;;5108464;28;20048;-60
2021/09/14 08:07:47;;;;;;;13.82;8.32;;;;;;;;;;5114161;28;20048;-60
2021/09/14 08:10:33;;;;;;;12.50;9.20;;;;;;;;;;5114351;28;20043;-61
2021/09/14 08:13:18;;;;;;;11.23;9.40;;;;;;;;;;5114268;28;20169;-61
2021/09/14 08:16:04;;;;;;;13.20;9.07;;;;;;;;;;5114034;28;20056;-61
2021/09/14 08:18:49;;;;;;;18.05;8.98;;;;;;;;;;5114346;28;20056;-61
2021/09/14 08:21:34;;;;;;;13.25;8.98;;;;;;;;;;5114119;28;20051;-61
2021/09/14 08:24:19;;;;;;;11.25;8.77;;;;;;;;;;5098269;28;20497;-61
2021/09/14 08:27:04;;;;;;;12.50;8.95;;;;;;;;;;5114174;28;20048;-61
2021/09/14 08:29:50;;;;;;;9.70;8.35;;;;;;;;;;5124884;28;20071;-61
2021/09/14 08:32:35;;;;;;;10.50;8.82;;;;;;;;;;5119520;28;20052;-61
2021/09/14 08:35:21;;;;;;;13.73;8.88;;;;;;;;;;5114354;28;20118;-63
2021/09/14 08:38:06;;;;;;;10.77;7.93;;;;;;;;;;5109884;28;20517;-62
2021/09/14 08:40:51;;;;;;;11.30;8.70;;;;;;;;;;5109812;28;20055;-61
2021/09/14 08:43:38;;;;;;;16.65;7.97;;;;;;;;;;5113716;28;20055;-61
2021/09/14 08:46:23;;;;;;;10.85;7.75;;;;;;;;;;5098597;28;20093;-60
2021/09/14 08:49:09;;;;;;;10.90;8.15;;;;;;;;;;5113662;28;20051;-61
2021/09/14 08:51:55;;;;;;;9.52;7.55;;;;;;;;;;5114710;28;20048;-61
2021/09/14 08:54:40;;;;;;;11.93;8.35;;;;;;;;;;5113226;28;20052;-61
2021/09/14 08:57:26;;;;;;;8.77;7.85;;;;;;;;;;5113228;28;20047;-61
2021/09/14 09:00:11;;;;;;;9.32;7.43;;;;;;;;;;5112798;28;20409;-61
2021/09/14 09:02:56;;;;;;;7.85;7.15;;;;;;;;;;5113378;28;20122;-62
2021/09/14 09:05:42;;;;;;;9.68;7.70;;;;;;;;;;5112983;28;20048;-60
2021/09/14 09:08:28;;;;;;;10.52;8.13;;;;;;;;;;5113247;28;20047;-60
2021/09/14 09:11:14;;;;;;;10.52;6.97;;;;;;;;;;5113044;28;20532;-61
2021/09/14 09:13:59;;;;;;;10.07;7.15;;;;;;;;;;5112789;28;20425;-61
2021/09/14 09:16:44;;;;;;;8.77;7.32;;;;;;;;;;5113082;28;20043;-61
2021/09/14 09:19:30;;;;;;;9.63;7.55;;;;;;;;;;5113036;28;20047;-61
2021/09/14 09:22:15;;;;;;;8.38;7.53;;;;;;;;;;5112768;28;20496;-62
2021/09/14 09:25:00;;;;;;;8.82;7.13;;;;;;;;;;5112824;28;20409;-61
2021/09/14 09:27:46;;;;;;;10.85;7.78;;;;;;;;;;5112915;28;20052;-61
2021/09/14 09:30:36;;;;;;;8.93;7.00;;;;;;;;;;5112876;28;20056;-62
2021/09/14 09:33:25;;;;;;;11.57;7.35;;;;;;;;;;5112693;28;20055;-61
2021/09/14 09:36:10;;;;;;;8.25;6.45;;;;;;;;;;5112865;28;20055;-62
2021/09/14 09:38:58;;;;;;;8.65;6.53;;;;;;;;;;5112661;28;20051;-62
2021/09/14 09:41:53;;;;;;;8.95;6.80;;;;;;;;;;5112773;28;20044;-62
2021/09/14 09:44:38;;;;;;;7.78;6.88;;;;;;;;;;5115956;28;20048;-63
2021/09/14 09:47:24;;;;;;;7.18;6.32;;;;;;;;;;5134420;22;20067;-63
2021/09/14 09:50:10;;;;;;;10.60;7.07;;;;;;;;;;5112486;28;20497;-63
2021/09/14 09:52:55;;;;;;;8.38;7.25;;;;;;;;;;5097329;28;20055;-63
2021/09/14 09:55:40;;;;;;;7.78;6.50;;;;;;;;;;5112246;28;20119;-63
2021/09/14 09:58:26;;;;;;;9.60;7.13;;;;;;;;;;5112571;28;20055;-63
2021/09/14 10:01:19;;;;;;;8.38;7.20;;;;;;;;;;5112381;28;20501;-63
2021/09/14 10:04:14;;;;;;;8.98;6.65;;;;;;;;;;5097174;28;20051;-64
2021/09/14 10:07:03;;;;;;;8.75;6.95;;;;;;;;;;5112195;28;20509;-64
2021/09/14 10:09:52;;;;;;;8.23;7.20;;;;;;;;;;5097447;28;20043;-63
2021/09/14 10:12:37;;;;;;;10.40;7.22;;;;;;;;;;5116420;28;20514;-64
2021/09/14 10:15:22;;;;;;;6.97;5.97;;;;;;;;;;5116432;28;20051;-63
2021/09/14 10:18:08;;;;;;;7.35;6.38;;;;;;;;;;5116490;28;20052;-64
2021/09/14 10:20:53;;;;;;;8.55;6.20;;;;;;;;;;5116335;28;20081;-63
2021/09/14 10:23:41;;;;;;;6.63;5.90;;;;;;;;;;5100896;28;20047;-63
2021/09/14 10:26:33;;;;;;;9.23;6.10;;;;;;;;;;5116404;28;20420;-64
2021/09/14 10:29:19;;;;;;;8.65;5.85;;;;;;;;;;5116239;28;20447;-63
2021/09/14 10:32:14;;;;;;;9.55;6.38;;;;;;;;;;5116158;28;20560;-63
2021/09/14 10:34:59;;;;;;;7.25;5.57;;;;;;;;;;5097561;28;20051;-63
2021/09/14 10:37:44;;;;;;;7.07;5.63;;;;;;;;;;5116393;28;20055;-63
2021/09/14 10:40:37;;;;;;;6.47;5.88;;;;;;;;;;5115983;28;20130;-63
2021/09/14 10:43:25;;;;;;;7.15;5.72;;;;;;;;;;5115962;28;20047;-63
2021/09/14 10:46:20;;;;;;;6.45;5.38;;;;;;;;;;5115837;28;20063;-63
2021/09/14 10:49:14;;;;;;;7.18;5.22;;;;;;;;;;5115680;28;20048;-63
2021/09/14 10:52:00;;;;;;;6.35;5.53;;;;;;;;;;5116108;28;20052;-63
2021/09/14 10:54:45;;;;;;;9.65;6.18;;;;;;;;;;5115772;28;20103;-63
2021/09/14 10:57:49;;;;;;;9.13;6.10;;;;;;;;;;5115716;28;20055;-64
2021/09/14 11:00:35;;;;;;;9.25;6.43;;;;;;;;;;5115533;28;20047;-64
2021/09/14 11:03:20;;;;;;;6.78;5.97;;;;;;;;;;5115672;28;20051;-63
2021/09/14 11:06:10;;;;;;;7.90;6.35;;;;;;;;;;5115926;28;20130;-64
2021/09/14 11:08:59;;;;;;;7.50;6.30;;;;;;;;;;5115272;28;20044;-63
2021/09/14 11:11:49;;;;;;;6.82;5.97;;;;;;;;;;5115600;28;20122;-64
2021/09/14 11:14:37;;;;;;;8.73;5.97;;;;;;;;;;5115213;28;20056;-63
2021/09/14 11:17:25;;;;;;;8.55;5.65;;;;;;;;;;5115153;28;20051;-64
2021/09/14 11:20:14;;;;;;;10.05;6.20;;;;;;;;;;5115459;28;20575;-64
2021/09/14 11:23:01;;;;;;;6.60;5.13;;;;;;;;;;5114503;28;20047;-63
2021/09/14 11:25:46;;;;;;;7.47;5.18;;;;;;;;;;5114867;28;20501;-64
2021/09/14 11:28:32;;;;;;;6.55;5.93;;;;;;;;;;5115152;28;20123;-64
2021/09/14 11:31:17;;;;;;;6.32;5.47;;;;;;;;;;5115110;28;20043;-63
2021/09/14 11:34:05;;;;;;;7.15;5.40;;;;;;;;;;5114749;28;20056;-64
2021/09/14 11:36:50;;;;;;;6.60;5.72;;;;;;;;;;5099903;28;20506;-63
2021/09/14 11:39:36;;;;;;;8.30;5.65;;;;;;;;;;5114906;28;20127;-64
2021/09/14 11:42:22;;;;;;;5.97;5.05;;;;;;;;;;5114710;28;20516;-65
2021/09/14 11:45:08;;;;;;;6.28;5.50;;;;;;;;;;5114777;28;20052;-65
2021/09/14 11:47:53;;;;;;;6.82;5.90;;;;;;;;;;5114635;28;20056;-65
2021/09/14 11:50:38;;;;;;;5.95;5.35;;;;;;;;;;5114596;28;20048;-65
2021/09/14 11:53:24;;;;;;;7.28;5.18;;;;;;;;;;5114766;28;20047;-65
2021/09/14 11:56:12;;;;;;;8.73;7.28;;;;;;;;;;5099351;28;20051;-65
2021/09/14 11:58:58;;;;;;;6.72;5.63;;;;;;;;;;5114311;28;20048;-65
2021/09/14 12:01:44;;;;;;;7.53;6.10;;;;;;;;;;5114618;28;20130;-65
2021/09/14 12:04:29;;;;;;;6.35;5.30;;;;;;;;;;5114485;28;20044;-65
2021/09/14 12:07:20;;;;;;;7.90;5.75;;;;;;;;;;5114190;28;20043;-65
2021/09/14 12:10:06;;;;;;;6.47;5.40;;;;;;;;;;5114468;28;20048;-65
2021/09/14 12:12:54;;;;;;;7.10;5.60;;;;;;;;;;5114327;28;20052;-65
2021/09/14 12:15:40;;;;;;;6.85;6.15;;;;;;;;;;5113913;28;20517;-65
2021/09/14 12:18:25;;;;;;;7.10;5.15;;;;;;;;;;5114223;28;20126;-64
2021/09/14 12:21:11;;;;;;;6.68;5.10;;;;;;;;;;5114346;28;20052;-65
2021/09/14 12:23:56;;;;;;;11.13;5.95;;;;;;;;;;5113660;28;20047;-65
2021/09/14 12:26:41;;;;;;;8.98;5.20;;;;;;;;;;5114109;28;20051;-65
2021/09/14 12:29:27;;;;;;;6.32;5.32;;;;;;;;;;5114170;28;20085;-65
2021/09/14 12:32:12;;;;;;;6.57;5.60;;;;;;;;;;5113770;28;20548;-65
2021/09/14 12:34:57;;;;;;;5.97;5.22;;;;;;;;;;5112789;28;20055;-65
2021/09/14 12:37:42;;;;;;;6.75;4.97;;;;;;;;;;5113902;28;20055;-65
2021/09/14 12:40:28;;;;;;;8.90;5.43;;;;;;;;;;5113680;28;20043;-65
2021/09/14 12:43:13;;;;;;;5.68;5.18;;;;;;;;;;5113709;28;20048;-65
2021/09/14 12:45:58;;;;;;;5.30;4.78;;;;;;;;;;5113542;28;20048;-65
2021/09/14 12:48:44;;;;;;;7.63;5.43;;;;;;;;;;5113274;28;20501;-65
2021/09/14 12:51:29;;;;;;;6.18;5.55;;;;;;;;;;5113654;28;20084;-65
2021/09/14 12:54:14;;;;;;;7.07;5.45;;;;;;;;;;5113271;28;20052;-65
2021/09/14 12:57:00;;;;;;;7.57;5.30;;;;;;;;;;5113345;28;20051;-65
2021/09/14 12:59:45;;;;;;;6.80;6.05;;;;;;;;;;5113227;28;20464;-65
2021/09/14 13:02:30;;;;;;;5.60;5.10;;;;;;;;;;5113295;28;20123;-65
2021/09/14 13:05:15;;;;;;;7.88;4.95;;;;;;;;;;5112988;28;20048;-67
2021/09/14 13:08:01;;;;;;;6.05;5.43;;;;;;;;;;5113346;28;20051;-66
2021/09/14 13:10:47;;;;;;;5.13;4.53;;;;;;;;;;5113232;28;20047;-66
2021/09/14 13:16:37;;;;;;;6.57;4.68;;;;;;;;;;5113262;28;20089;-66
2021/09/14 13:19:23;;;;;;;6.93;5.75;;;;;;;;;;5112972;28;20059;-67
2021/09/14 13:22:08;;;;;;;5.90;4.97;;;;;;;;;;5112756;28;20568;-66
2021/09/14 13:24:53;;;;;;;5.75;4.60;;;;;;;;;;5113057;28;20153;-66
2021/09/14 13:27:39;;;;;;;4.82;4.35;;;;;;;;;;5112948;28;20051;-67
2021/09/14 13:30:24;;;;;;;6.82;4.85;;;;;;;;;;5112828;28;20484;-67
2021/09/14 13:33:09;;;;;;;5.78;4.53;;;;;;;;;;5112772;28;20525;-67
2021/09/14 13:35:55;;;;;;;5.88;5.07;;;;;;;;;;5112998;28;20051;-66
2021/09/14 13:38:40;;;;;;;4.97;4.50;;;;;;;;;;5112640;28;20043;-66
2021/09/14 13:41:30;;;;;;;5.82;4.43;;;;;;;;;;5112872;28;20055;-66
2021/09/14 13:47:13;;;;;;;8.13;4.07;;;;;;;;;;5112214;28;20523;-66
2021/09/14 13:49:59;;;;;;;4.82;4.35;;;;;;;;;;5112693;28;20047;-66
2021/09/14 13:52:44;;;;;;;6.93;4.43;;;;;;;;;;5112585;28;20055;-66
2021/09/14 13:55:29;;;;;;;5.05;4.63;;;;;;;;;;5112186;28;20056;-66
2021/09/14 13:58:15;;;;;;;6.10;4.38;;;;;;;;;;5112297;28;20557;-66
2021/09/14 14:01:00;;;;;;;5.28;4.30;;;;;;;;;;5112534;28;20051;-66
2021/09/14 14:03:45;;;;;;;6.70;4.95;;;;;;;;;;5112059;28;20043;-66
2021/09/14 14:06:30;;;;;;;5.28;4.38;;;;;;;;;;5112502;28;20052;-66
2021/09/14 14:09:16;;;;;;;6.55;4.90;;;;;;;;;;5112513;28;20044;-66
2021/09/14 14:12:01;;;;;;;6.05;4.55;;;;;;;;;;5112363;28;20051;-66
2021/09/14 14:14:47;;;;;;;4.72;4.22;;;;;;;;;;5112320;28;20055;-66
2021/09/14 14:17:32;;;;;;;4.90;4.50;;;;;;;;;;5112297;28;20085;-66
2021/09/14 14:20:17;;;;;;;4.75;3.80;;;;;;;;;;5112540;28;20052;-66
2021/09/14 14:23:02;;;;;;;5.78;5.20;;;;;;;;;;5112492;28;20048;-66
2021/09/14 14:25:48;;;;;;;5.55;4.70;;;;;;;;;;5112190;28;20114;-66
2021/09/14 14:28:33;;;;;;;4.40;4.00;;;;;;;;;;5112027;28;20557;-66
2021/09/14 14:31:18;;;;;;;6.32;5.72;;;;;;;;;;5112332;28;20051;-65
2021/09/14 14:34:04;;;;;;;5.50;5.00;;;;;;;;;;5111972;28;20059;-65
2021/09/14 14:36:49;;;;;;;5.63;4.97;;;;;;;;;;5112149;28;20056;-66
2021/09/14 14:39:34;;;;;;;5.72;5.00;;;;;;;;;;5111974;28;20502;-65
2021/09/14 14:42:20;;;;;;;7.47;5.32;;;;;;;;;;5112091;28;20413;-65
2021/09/14 14:45:05;;;;;;;6.40;5.18;;;;;;;;;;5111856;28;20348;-65
2021/09/14 14:47:52;;;;;;;6.50;5.90;;;;;;;;;;5111685;28;20055;-65
2021/09/14 14:50:37;;;;;;;6.00;5.55;;;;;;;;;;5112102;28;20044;-65
2021/09/14 14:53:22;;;;;;;6.70;6.15;;;;;;;;;;5112005;28;20112;-65
2021/09/14 14:56:08;;;;;;;6.45;5.93;;;;;;;;;;5111823;28;20047;-65
2021/09/14 14:58:53;;;;;;;5.38;4.88;;;;;;;;;;5115443;28;20059;-65
2021/09/14 15:01:39;;;;;;;6.85;5.40;;;;;;;;;;5115714;28;20079;-65
2021/09/14 15:04:24;;;;;;;6.72;4.78;;;;;;;;;;5115166;28;20052;-65
2021/09/14 15:07:09;;;;;;;6.05;5.45;;;;;;;;;;5115615;28;20073;-65
2021/09/14 15:09:55;;;;;;;5.55;5.03;;;;;;;;;;5115532;28;20043;-65
2021/09/14 15:12:40;;;;;;;6.40;5.80;;;;;;;;;;5115296;28;20044;-65
2021/09/14 15:15:26;;;;;;;6.07;5.47;;;;;;;;;;5115365;28;20648;-65
2021/09/14 15:18:11;;;;;;;5.53;4.95;;;;;;;;;;5115356;28;20048;-65
2021/09/14 15:20:56;;;;;;;7.68;6.55;;;;;;;;;;5115461;28;20051;-65
2021/09/14 15:23:42;;;;;;;5.97;5.10;;;;;;;;;;5115360;28;20123;-66
2021/09/14 15:26:27;;;;;;;6.10;5.43;;;;;;;;;;5115273;28;20051;-66
2021/09/14 15:29:12;;;;;;;6.10;5.50;;;;;;;;;;5114981;28;20568;-66
2021/09/14 15:31:58;;;;;;;6.40;5.82;;;;;;;;;;5115164;28;20083;-66
2021/09/14 15:34:43;;;;;;;5.78;5.28;;;;;;;;;;5114917;28;20055;-66
2021/09/14 15:37:28;;;;;;;7.53;6.10;;;;;;;;;;5114898;28;20124;-66
2021/09/14 15:40:14;;;;;;;6.47;5.85;;;;;;;;;;5115108;28;20048;-65
2021/09/14 15:42:59;;;;;;;8.25;5.85;;;;;;;;;;5114898;28;20048;-66
2021/09/14 15:45:45;;;;;;;9.18;6.38;;;;;;;;;;5114514;28;20051;-66
2021/09/14 15:48:31;;;;;;;7.72;5.95;;;;;;;;;;5129414;22;20056;-62
2021/09/14 15:51:16;;;;;;;7.55;5.95;;;;;;;;;;5115061;28;20493;-63
2021/09/14 15:54:01;;;;;;;8.13;6.22;;;;;;;;;;5114952;28;20051;-62
2021/09/14 15:56:47;;;;;;;8.00;6.85;;;;;;;;;;5115132;28;20059;-62
2021/09/14 15:59:32;;;;;;;8.90;8.00;;;;;;;;;;5115483;28;20052;-63
2021/09/14 16:02:17;;;;;;;9.45;7.70;;;;;;;;;;5114927;28;20130;-62
2021/09/14 16:05:03;;;;;;;10.60;7.45;;;;;;;;;;5114088;28;20067;-62
2021/09/14 16:07:48;;;;;;;7.40;6.63;;;;;;;;;;5114295;28;20059;-62
2021/09/14 16:10:34;;;;;;;6.95;6.35;;;;;;;;;;5114626;28;20055;-62
2021/09/14 16:13:19;;;;;;;8.20;6.60;;;;;;;;;;5114441;28;20051;-62
2021/09/14 16:16:05;;;;;;;8.50;7.18;;;;;;;;;;5114445;28;20048;-62
2021/09/14 16:18:50;;;;;;;7.90;6.57;;;;;;;;;;5114098;28;20052;-62
2021/09/14 16:21:36;;;;;;;8.70;6.53;;;;;;;;;;5113991;28;20439;-62
2021/09/14 16:24:21;;;;;;;9.02;6.78;;;;;;;;;;5113683;28;20517;-62
2021/09/14 16:27:06;;;;;;;11.02;7.28;;;;;;;;;;5114047;28;20122;-62
2021/09/14 16:29:52;;;;;;;7.30;6.53;;;;;;;;;;5113787;28;20425;-62
2021/09/14 16:32:37;;;;;;;7.22;6.63;;;;;;;;;;5114072;28;20052;-63
2021/09/14 16:35:22;;;;;;;7.93;7.10;;;;;;;;;;5114156;28;20052;-62
2021/09/14 16:38:08;;;;;;;14.02;6.80;;;;;;;;;;5114036;28;20055;-62
2021/09/14 16:40:53;;;;;;;8.27;7.10;;;;;;;;;;5113700;28;20501;-62
2021/09/14 16:43:38;;;;;;;7.55;6.85;;;;;;;;;;5113616;28;20047;-63
2021/09/14 16:46:24;;;;;;;7.68;7.00;;;;;;;;;;5113604;28;20085;-63
2021/09/14 16:49:09;;;;;;;8.40;7.53;;;;;;;;;;5113431;28;20130;-62
2021/09/14 16:51:54;;;;;;;10.52;7.22;;;;;;;;;;5113604;28;20047;-62
2021/09/14 16:54:40;;;;;;;8.80;6.82;;;;;;;;;;5113175;28;20056;-62
2021/09/14 16:57:25;;;;;;;8.65;7.60;;;;;;;;;;5113534;28;20059;-62
2021/09/14 17:00:11;;;;;;;7.35;6.63;;;;;;;;;;5113376;28;20052;-62
2021/09/14 17:02:57;;;;;;;7.20;6.60;;;;;;;;;;5113202;28;20126;-62
2021/09/14 17:05:42;;;;;;;8.35;6.78;;;;;;;;;;5113184;28;20047;-62
2021/09/14 17:08:28;;;;;;;8.23;7.43;;;;;;;;;;5113201;28;20051;-62
2021/09/14 17:11:13;;;;;;;8.25;7.45;;;;;;;;;;5113136;28;20048;-62
2021/09/14 17:13:58;;;;;;;8.25;7.40;;;;;;;;;;5112780;28;20055;-62
2021/09/14 17:16:44;;;;;;;7.75;7.05;;;;;;;;;;5113189;28;20126;-62
2021/09/14 17:19:30;;;;;;;8.05;7.35;;;;;;;;;;5112627;28;20059;-62
2021/09/14 17:22:15;;;;;;;10.05;9.15;;;;;;;;;;5113146;28;20051;-61
2021/09/14 17:25:01;;;;;;;9.13;7.72;;;;;;;;;;5112707;28;20047;-62